Time;durP1;ratioP1;P1;durP2;ratioP2;P2;SDS_P1;SDS_P2;PMS_P1;PMS_P2;Temp;Humidity;BMP_temperature;BMP_pressure;BME280_temperature;BME280_humidity;BME280_pressure;Samples;Min_cycle;Max_cycle;Signal;HPM_P1;HPM_P2
2023/03/22 00:01:58;;;;;;;21.30;16.88;;;10.60;99.90;;;;;;5012705;28;20109;-48
2023/03/22 00:04:44;;;;;;;20.42;15.27;;;10.60;99.90;;;;;;4999170;28;20060;-50
2023/03/22 00:07:30;;;;;;;19.45;16.02;;;10.60;99.90;;;;;;5012393;28;20029;-51
2023/03/22 00:10:16;;;;;;;21.98;15.77;;;10.60;99.90;;;;;;5012729;28;20030;-51
2023/03/22 00:13:05;;;;;;;24.55;16.38;;;10.60;99.90;;;;;;5012668;28;20042;-50
2023/03/22 00:15:51;;;;;;;20.25;16.38;;;10.60;99.90;;;;;;5012596;28;20141;-52
2023/03/22 00:18:37;;;;;;;19.40;15.75;;;10.70;99.90;;;;;;5012607;28;20014;-53
2023/03/22 00:21:23;;;;;;;23.05;16.45;;;10.70;99.90;;;;;;5012362;28;20034;-50
2023/03/22 00:24:09;;;;;;;19.60;15.77;;;10.70;99.90;;;;;;4997137;28;20110;-49
2023/03/22 00:26:55;;;;;;;17.48;15.30;;;10.80;99.90;;;;;;4989484;28;20042;-51
2023/03/22 00:29:41;;;;;;;19.67;15.77;;;10.80;99.90;;;;;;5000138;28;20109;-50
2023/03/22 00:32:27;;;;;;;21.65;15.80;;;10.80;99.90;;;;;;4998615;28;20037;-50
2023/03/22 00:35:13;;;;;;;20.15;16.15;;;10.80;99.90;;;;;;5002178;28;20036;-48
2023/03/22 00:38:05;;;;;;;19.45;15.75;;;10.90;99.90;;;;;;5010644;28;20094;-49
2023/03/22 00:40:51;;;;;;;17.55;14.98;;;11.00;99.90;;;;;;5001583;28;20037;-53
2023/03/22 00:43:37;;;;;;;15.95;13.95;;;10.90;99.90;;;;;;5007097;28;20359;-52
2023/03/22 00:46:23;;;;;;;15.77;13.70;;;10.90;99.90;;;;;;5009095;28;20038;-51
2023/03/22 00:49:09;;;;;;;16.75;14.35;;;11.00;99.90;;;;;;5001180;28;20048;-53
2023/03/22 00:51:55;;;;;;;18.85;13.73;;;10.90;99.90;;;;;;5003246;28;20049;-52
2023/03/22 00:54:41;;;;;;;15.63;13.63;;;10.90;99.90;;;;;;5010992;28;20101;-50
2023/03/22 00:57:27;;;;;;;16.88;13.05;;;10.90;99.90;;;;;;5009667;28;20383;-52
2023/03/22 01:00:13;;;;;;;16.77;12.40;;;10.80;99.90;;;;;;5004659;28;20509;-55
2023/03/22 01:03:03;;;;;;;15.23;12.23;;;10.80;99.90;;;;;;5006950;28;20030;-54
2023/03/22 01:05:54;;;;;;;14.90;12.25;;;10.80;99.90;;;;;;4992099;28;20019;-51
2023/03/22 01:08:40;;;;;;;15.20;11.43;;;10.90;99.90;;;;;;4997544;28;20395;-56
2023/03/22 01:11:26;;;;;;;13.55;10.73;;;10.90;99.90;;;;;;4999297;28;20023;-52
2023/03/22 01:14:12;;;;;;;13.70;10.95;;;10.90;99.90;;;;;;5000455;28;20086;-52
2023/03/22 01:16:58;;;;;;;12.43;10.80;;;10.90;99.90;;;;;;4993397;28;20548;-52
2023/03/22 01:19:44;;;;;;;13.75;10.65;;;10.80;99.90;;;;;;4990448;28;20035;-54
2023/03/22 01:22:30;;;;;;;13.82;10.05;;;10.90;99.90;;;;;;4976271;28;20369;-50
2023/03/22 01:25:16;;;;;;;12.95;10.05;;;10.90;99.90;;;;;;4991627;28;20600;-50
2023/03/22 01:28:02;;;;;;;11.90;9.80;;;11.00;99.90;;;;;;4990435;28;20059;-47
2023/03/22 01:30:50;;;;;;;13.25;10.00;;;11.00;99.90;;;;;;4991725;28;20463;-49
2023/03/22 01:33:36;;;;;;;9.70;8.70;;;10.90;99.90;;;;;;4991843;28;20031;-49
2023/03/22 01:36:22;;;;;;;10.50;9.40;;;10.90;99.90;;;;;;4991349;28;20275;-52
2023/03/22 01:39:08;;;;;;;13.32;9.45;;;10.80;99.90;;;;;;4990445;28;20027;-50
2023/03/22 01:41:54;;;;;;;11.45;9.05;;;10.70;99.90;;;;;;4990326;28;20120;-52
2023/03/22 01:44:43;;;;;;;10.23;8.60;;;10.70;99.90;;;;;;4990686;28;20100;-48
2023/03/22 01:47:31;;;;;;;10.13;9.02;;;10.70;99.90;;;;;;4977593;28;20034;-53
2023/03/22 01:50:18;;;;;;;11.00;9.15;;;10.70;99.90;;;;;;4990979;28;20031;-53
2023/03/22 01:53:06;;;;;;;13.10;9.60;;;10.60;99.90;;;;;;4990863;28;20027;-50
2023/03/22 01:55:54;;;;;;;11.95;9.10;;;10.60;99.90;;;;;;4990567;28;20058;-49
2023/03/22 01:58:41;;;;;;;11.23;8.85;;;10.60;99.90;;;;;;4990706;28;20089;-49
2023/03/22 02:01:27;;;;;;;10.07;8.50;;;10.50;99.90;;;;;;4991467;28;20034;-48
2023/03/22 02:04:19;;;;;;;12.73;9.18;;;10.50;99.90;;;;;;4991849;28;20035;-49
2023/03/22 02:07:09;;;;;;;11.27;7.90;;;10.50;99.90;;;;;;4990052;28;20081;-49
2023/03/22 02:09:55;;;;;;;12.10;8.20;;;10.40;99.90;;;;;;4991347;28;20066;-47
2023/03/22 02:12:47;;;;;;;10.40;7.70;;;10.40;99.90;;;;;;4990179;28;20349;-49
2023/03/22 02:15:51;;;;;;;12.10;8.73;;;10.40;99.90;;;;;;4990659;28;20030;-49
2023/03/22 02:19:03;;;;;;;12.02;7.25;;;10.40;99.90;;;;;;4991793;28;20037;-48
2023/03/22 02:21:52;;;;;;;12.40;8.25;;;10.40;99.90;;;;;;4992354;28;20282;-51
2023/03/22 02:25:05;;;;;;;9.68;7.82;;;10.40;99.90;;;;;;4994375;28;20041;-48
2023/03/22 02:28:16;;;;;;;9.75;7.18;;;10.40;99.90;;;;;;4993968;28;20053;-50
2023/03/22 02:31:11;;;;;;;7.88;7.03;;;10.30;99.90;;;;;;4994571;28;20037;-49
2023/03/22 02:34:15;;;;;;;7.88;6.95;;;10.20;99.90;;;;;;4993397;28;20439;-47
2023/03/22 02:37:38;;;;;;;9.70;7.30;;;10.20;99.90;;;;;;4994610;28;20028;-50
2023/03/22 02:40:48;;;;;;;8.57;7.32;;;10.10;99.90;;;;;;4993806;28;20502;-51
2023/03/22 02:43:45;;;;;;;7.43;6.68;;;10.20;99.90;;;;;;4994195;28;20023;-50
2023/03/22 02:46:47;;;;;;;8.65;6.72;;;10.20;99.90;;;;;;4995210;28;20120;-54
2023/03/22 02:49:53;;;;;;;11.75;7.57;;;10.20;99.90;;;;;;4994180;28;20023;-52
2023/03/22 02:52:42;;;;;;;7.85;6.60;;;10.10;99.90;;;;;;4994839;28;20037;-49
2023/03/22 02:55:40;;;;;;;8.95;6.60;;;10.10;99.90;;;;;;4994211;28;20427;-47
2023/03/22 02:58:49;;;;;;;10.20;7.50;;;10.20;99.90;;;;;;4992962;28;20066;-50
2023/03/22 03:01:51;;;;;;;9.25;7.28;;;10.20;99.90;;;;;;4993296;28;20110;-50
2023/03/22 03:04:44;;;;;;;8.02;6.78;;;10.20;99.90;;;;;;4993559;28;20038;-50
2023/03/22 03:07:30;;;;;;;8.63;7.35;;;10.20;99.90;;;;;;4993517;28;20054;-50
2023/03/22 03:10:18;;;;;;;9.52;7.55;;;10.10;99.90;;;;;;4978769;28;20027;-49
2023/03/22 03:13:04;;;;;;;7.70;6.88;;;10.00;99.90;;;;;;4994237;28;20626;-50
2023/03/22 03:15:56;;;;;;;7.90;7.05;;;10.00;99.90;;;;;;4992580;28;20034;-49
2023/03/22 03:19:09;;;;;;;10.00;7.25;;;9.90;99.90;;;;;;4993038;28;20026;-47
2023/03/22 03:22:00;;;;;;;8.80;7.63;;;9.80;99.90;;;;;;4993149;28;20068;-49
2023/03/22 03:25:04;;;;;;;8.95;7.13;;;9.80;99.90;;;;;;4992659;28;20110;-50
2023/03/22 03:27:59;;;;;;;9.23;7.93;;;9.70;99.90;;;;;;4992933;28;20451;-47
2023/03/22 03:31:31;;;;;;;12.15;8.45;;;9.60;99.90;;;;;;4992948;28;20030;-48
2023/03/22 03:34:51;;;;;;;10.65;7.50;;;9.60;99.90;;;;;;4984288;28;20034;-50
2023/03/22 03:37:47;;;;;;;9.60;7.97;;;9.60;99.90;;;;;;4987532;28;20030;-51
2023/03/22 03:40:38;;;;;;;10.65;8.32;;;9.70;99.90;;;;;;4993035;28;20061;-47
2023/03/22 03:43:27;;;;;;;12.30;8.00;;;9.60;99.90;;;;;;4993351;28;20048;-48
2023/03/22 03:46:13;;;;;;;9.95;8.07;;;9.70;99.90;;;;;;4992772;28;20045;-51
2023/03/22 03:49:02;;;;;;;9.57;7.22;;;9.80;99.90;;;;;;4992668;28;20057;-53
2023/03/22 03:51:54;;;;;;;10.65;8.02;;;9.70;99.90;;;;;;4992643;28;20085;-49
2023/03/22 03:54:41;;;;;;;9.02;7.85;;;9.80;99.90;;;;;;4990952;28;20477;-52
2023/03/22 03:57:27;;;;;;;9.23;7.63;;;9.70;99.90;;;;;;4992858;28;20611;-53
2023/03/22 04:00:13;;;;;;;9.27;7.78;;;9.70;99.90;;;;;;4977546;28;20407;-53
2023/03/22 04:02:59;;;;;;;10.07;7.53;;;9.70;99.90;;;;;;4992300;28;20022;-54
2023/03/22 04:05:46;;;;;;;10.18;7.85;;;9.70;99.90;;;;;;4992236;28;20081;-51
2023/03/22 04:08:32;;;;;;;9.02;7.57;;;9.60;99.90;;;;;;4978861;28;20384;-47
2023/03/22 04:11:19;;;;;;;10.43;8.10;;;9.70;99.90;;;;;;4977651;28;20459;-48
2023/03/22 04:14:05;;;;;;;9.32;7.88;;;9.60;99.90;;;;;;4991411;28;20040;-52
2023/03/22 04:16:51;;;;;;;11.25;8.75;;;9.60;99.90;;;;;;4991264;28;20104;-52
2023/03/22 04:19:37;;;;;;;11.10;8.13;;;9.70;99.90;;;;;;4992090;28;20027;-51
2023/03/22 04:22:24;;;;;;;13.55;9.75;;;9.60;99.90;;;;;;4991407;28;20380;-50
2023/03/22 04:25:13;;;;;;;11.07;8.45;;;9.60;99.90;;;;;;4992086;28;20019;-48
2023/03/22 04:27:59;;;;;;;9.38;8.40;;;9.60;99.90;;;;;;4991944;28;20034;-49
2023/03/22 04:30:50;;;;;;;12.68;8.77;;;9.60;99.90;;;;;;4991130;28;20027;-51
2023/03/22 04:33:38;;;;;;;12.27;9.27;;;9.50;99.90;;;;;;4991236;28;20072;-52
2023/03/22 04:36:25;;;;;;;10.70;8.32;;;9.60;99.90;;;;;;4991359;28;20030;-48
2023/03/22 04:39:11;;;;;;;12.18;8.02;;;9.60;99.90;;;;;;4991688;28;20045;-53
2023/03/22 04:41:57;;;;;;;10.23;9.13;;;9.60;99.90;;;;;;4991730;28;20030;-48
2023/03/22 04:44:43;;;;;;;11.23;8.55;;;9.60;99.90;;;;;;4990944;28;20030;-48
2023/03/22 04:47:30;;;;;;;16.00;12.40;;;9.60;99.90;;;;;;4991357;28;20067;-50
2023/03/22 04:50:16;;;;;;;12.30;9.73;;;9.60;99.90;;;;;;4990236;28;20057;-49
2023/03/22 04:53:02;;;;;;;10.40;8.07;;;9.60;99.90;;;;;;4992018;28;20057;-50
2023/03/22 04:55:48;;;;;;;12.38;8.98;;;9.60;99.90;;;;;;4990650;28;20124;-49
2023/03/22 04:58:35;;;;;;;15.35;8.68;;;9.60;99.90;;;;;;4991324;28;20042;-48
2023/03/22 05:01:21;;;;;;;11.73;9.27;;;9.60;99.90;;;;;;4991418;28;20030;-51
2023/03/22 05:04:07;;;;;;;9.88;8.32;;;9.60;99.90;;;;;;4991651;28;20122;-49
2023/03/22 05:06:53;;;;;;;22.15;16.48;;;9.60;99.90;;;;;;4991160;28;20109;-50
2023/03/22 05:09:39;;;;;;;12.48;9.85;;;9.60;99.90;;;;;;4990438;28;20033;-51
2023/03/22 05:12:25;;;;;;;13.30;9.70;;;9.60;99.90;;;;;;4990709;28;20077;-54
2023/03/22 05:15:12;;;;;;;11.13;8.95;;;9.70;99.90;;;;;;4991595;28;20562;-48
2023/03/22 05:17:58;;;;;;;11.98;9.40;;;9.70;99.90;;;;;;4991086;28;20403;-51
2023/03/22 05:20:44;;;;;;;13.90;10.20;;;9.70;99.90;;;;;;4991196;28;20070;-51
2023/03/22 05:23:30;;;;;;;13.15;9.38;;;9.70;99.90;;;;;;4991333;28;20395;-53
2023/03/22 05:26:19;;;;;;;14.32;9.88;;;9.70;99.90;;;;;;4990591;28;20034;-50
2023/03/22 05:29:05;;;;;;;13.50;9.63;;;9.70;99.90;;;;;;4991226;28;20109;-49
2023/03/22 05:31:51;;;;;;;12.98;9.00;;;9.70;99.90;;;;;;4991938;28;20495;-51
2023/03/22 05:34:37;;;;;;;13.48;9.30;;;9.60;99.90;;;;;;4991040;28;20031;-52
2023/03/22 05:37:24;;;;;;;12.05;9.63;;;9.70;99.90;;;;;;4991146;28;20046;-50
2023/03/22 05:40:10;;;;;;;13.88;10.68;;;9.70;99.90;;;;;;4990300;28;20029;-48
2023/03/22 05:42:56;;;;;;;14.98;10.50;;;9.60;99.90;;;;;;4989701;28;20438;-50
2023/03/22 05:45:42;;;;;;;13.15;9.95;;;9.70;99.90;;;;;;4989756;28;20388;-49
2023/03/22 05:48:28;;;;;;;12.73;10.93;;;9.60;99.90;;;;;;4990184;28;20046;-51
2023/03/22 05:51:18;;;;;;;17.90;11.32;;;9.70;99.90;;;;;;4977618;28;20096;-54
2023/03/22 05:54:06;;;;;;;13.65;10.88;;;9.70;99.90;;;;;;4991029;28;20035;-52
2023/03/22 05:56:52;;;;;;;13.90;11.35;;;9.70;99.90;;;;;;4991750;28;20037;-52
2023/03/22 05:59:38;;;;;;;17.73;10.80;;;9.70;99.90;;;;;;4993665;28;20518;-51
2023/03/22 06:02:25;;;;;;;14.55;10.77;;;9.70;99.90;;;;;;4994022;28;20382;-53
2023/03/22 06:05:12;;;;;;;13.52;10.25;;;9.70;99.90;;;;;;4994501;28;20061;-53
2023/03/22 06:07:58;;;;;;;19.50;15.07;;;9.80;99.90;;;;;;4994914;28;20037;-54
2023/03/22 06:10:47;;;;;;;16.50;11.80;;;9.80;99.90;;;;;;4993505;28;20443;-49
2023/03/22 06:13:33;;;;;;;17.25;11.30;;;9.80;99.90;;;;;;4994844;28;20062;-52
2023/03/22 06:16:19;;;;;;;15.18;11.02;;;9.80;99.90;;;;;;4993491;28;20109;-52
2023/03/22 06:19:05;;;;;;;12.73;10.20;;;9.70;99.90;;;;;;4994644;28;20054;-53
2023/03/22 06:21:53;;;;;;;13.15;10.70;;;9.70;99.90;;;;;;4993957;28;20092;-50
2023/03/22 06:24:41;;;;;;;14.57;10.55;;;9.70;99.90;;;;;;4994345;28;20406;-51
2023/03/22 06:27:27;;;;;;;15.70;11.18;;;9.70;99.90;;;;;;4994745;28;20372;-53
2023/03/22 06:30:13;;;;;;;15.75;11.40;;;9.70;99.90;;;;;;4994461;28;20112;-53
2023/03/22 06:33:03;;;;;;;17.50;11.45;;;9.70;99.90;;;;;;4992875;28;20041;-49
2023/03/22 06:35:49;;;;;;;17.25;11.55;;;9.80;99.90;;;;;;5003784;28;20083;-51
2023/03/22 06:38:35;;;;;;;20.13;13.27;;;9.80;99.90;;;;;;4999881;28;20117;-49
2023/03/22 06:41:20;;;;;;;14.52;12.05;;;9.90;99.90;;;;;;5012932;28;20018;-48
2023/03/22 06:44:06;;;;;;;20.00;13.02;;;10.00;99.90;;;;;;5012620;28;20398;-50
2023/03/22 06:46:52;;;;;;;19.17;12.98;;;10.00;99.90;;;;;;5013391;28;20479;-49
2023/03/22 06:49:39;;;;;;;17.25;12.35;;;10.10;99.90;;;;;;5013105;28;20577;-50
2023/03/22 06:52:25;;;;;;;24.08;15.98;;;10.20;99.90;;;;;;5015221;28;20034;-51
2023/03/22 06:55:11;;;;;;;19.17;13.18;;;10.20;99.90;;;;;;5018544;28;20497;-52
2023/03/22 06:57:56;;;;;;;18.02;12.20;;;10.30;99.90;;;;;;5018401;28;20037;-51
2023/03/22 07:00:42;;;;;;;16.10;11.93;;;10.20;99.90;;;;;;5016459;28;20057;-48
2023/03/22 07:03:28;;;;;;;17.75;13.38;;;10.20;99.90;;;;;;5017846;28;20038;-51
2023/03/22 07:06:14;;;;;;;17.83;13.52;;;10.30;99.90;;;;;;5019410;28;20034;-53
2023/03/22 07:09:01;;;;;;;14.43;12.27;;;10.30;99.90;;;;;;5014542;28;20128;-54
2023/03/22 07:11:47;;;;;;;15.38;12.70;;;10.30;99.90;;;;;;4995976;28;20037;-52
2023/03/22 07:14:32;;;;;;;21.23;13.15;;;10.40;99.90;;;;;;5010695;28;20034;-53
2023/03/22 07:17:19;;;;;;;17.13;12.93;;;10.40;99.90;;;;;;5000500;28;20049;-49
2023/03/22 07:20:05;;;;;;;19.20;12.60;;;10.40;99.90;;;;;;5013679;28;20038;-51
2023/03/22 07:22:52;;;;;;;17.95;13.48;;;10.50;99.90;;;;;;4995065;28;20041;-48
2023/03/22 07:25:38;;;;;;;17.85;12.93;;;10.50;99.90;;;;;;4981761;28;20359;-49
2023/03/22 07:28:23;;;;;;;16.55;12.55;;;10.50;99.90;;;;;;5012351;28;20097;-48
2023/03/22 07:31:11;;;;;;;15.73;12.77;;;10.60;99.90;;;;;;5013105;28;20034;-49
2023/03/22 07:33:57;;;;;;;16.63;13.65;;;10.60;99.90;;;;;;5011400;28;20030;-49
2023/03/22 07:36:42;;;;;;;15.63;13.18;;;10.60;99.90;;;;;;5011750;28;20441;-51
2023/03/22 07:39:29;;;;;;;18.33;13.60;;;10.60;99.90;;;;;;5012666;28;20034;-48
2023/03/22 07:42:15;;;;;;;16.20;13.73;;;10.60;99.90;;;;;;5011113;28;20022;-50
2023/03/22 07:45:01;;;;;;;19.63;14.40;;;10.60;99.90;;;;;;5012369;28;20117;-49
2023/03/22 07:47:47;;;;;;;19.10;13.15;;;10.60;99.90;;;;;;5012406;28;20034;-47
2023/03/22 07:50:33;;;;;;;15.98;13.30;;;10.90;99.90;;;;;;5012637;28;20061;-52
2023/03/22 07:53:19;;;;;;;20.17;14.80;;;10.80;99.90;;;;;;4998413;28;20030;-52
2023/03/22 07:56:06;;;;;;;16.77;14.45;;;10.80;99.90;;;;;;4997977;28;20525;-49
2023/03/22 07:58:52;;;;;;;18.30;14.25;;;10.80;99.90;;;;;;5009993;28;20038;-51
2023/03/22 08:01:38;;;;;;;17.25;13.07;;;10.90;99.90;;;;;;5011392;28;20034;-51
2023/03/22 08:04:24;;;;;;;17.77;13.73;;;10.90;99.90;;;;;;5012646;28;20400;-49
2023/03/22 08:07:10;;;;;;;18.42;13.93;;;11.00;99.90;;;;;;5012033;28;20034;-50
2023/03/22 08:09:56;;;;;;;15.63;13.50;;;11.30;99.90;;;;;;5011766;28;20109;-52
2023/03/22 08:12:43;;;;;;;19.13;13.73;;;11.40;99.90;;;;;;4996886;28;20112;-49
2023/03/22 08:15:29;;;;;;;19.10;13.68;;;11.40;99.90;;;;;;5012057;28;20056;-50
2023/03/22 08:18:15;;;;;;;16.90;13.38;;;11.60;99.90;;;;;;5010948;28;20045;-49
2023/03/22 08:21:01;;;;;;;15.52;12.98;;;11.70;99.90;;;;;;5010535;28;20030;-50
2023/03/22 08:23:47;;;;;;;18.50;13.65;;;11.90;99.90;;;;;;5006126;28;20073;-49
2023/03/22 08:26:32;;;;;;;14.95;13.32;;;12.00;99.90;;;;;;5010803;28;20038;-49
2023/03/22 08:29:21;;;;;;;17.33;13.55;;;12.10;99.90;;;;;;5010713;28;20414;-54
2023/03/22 08:32:07;;;;;;;16.95;14.43;;;12.20;99.90;;;;;;5011732;28;20542;-50
2023/03/22 08:34:53;;;;;;;17.33;13.57;;;12.10;99.90;;;;;;5010648;28;20113;-50
2023/03/22 08:37:40;;;;;;;17.55;13.10;;;12.20;99.90;;;;;;5004862;28;20457;-51
2023/03/22 08:40:26;;;;;;;15.30;13.15;;;12.30;99.90;;;;;;5004708;28;20027;-50
2023/03/22 08:43:12;;;;;;;16.98;12.93;;;12.40;99.90;;;;;;5000434;28;20022;-52
2023/03/22 08:45:58;;;;;;;15.05;13.45;;;12.50;99.90;;;;;;5006234;28;20156;-49
2023/03/22 08:48:49;;;;;;;15.68;13.18;;;12.60;99.90;;;;;;5000598;28;20031;-50
2023/03/22 08:51:35;;;;;;;17.52;13.38;;;12.60;99.90;;;;;;4995321;28;20042;-51
2023/03/22 08:54:21;;;;;;;14.38;12.82;;;12.80;99.90;;;;;;5008896;28;20037;-52
2023/03/22 08:57:10;;;;;;;13.20;11.80;;;12.80;99.90;;;;;;5011318;28;20029;-49
2023/03/22 08:59:56;;;;;;;15.73;11.90;;;13.00;99.90;;;;;;5002142;28;20060;-52
2023/03/22 09:02:42;;;;;;;15.85;12.80;;;12.90;99.90;;;;;;4997436;28;20521;-50
2023/03/22 09:05:28;;;;;;;16.08;12.43;;;13.00;99.90;;;;;;5005626;28;20029;-49
2023/03/22 09:08:14;;;;;;;13.60;11.35;;;13.00;99.90;;;;;;5010619;28;20041;-50
2023/03/22 09:11:00;;;;;;;14.98;11.18;;;13.20;99.90;;;;;;5010518;28;20022;-51
2023/03/22 09:13:50;;;;;;;13.95;10.13;;;13.30;99.90;;;;;;5009154;28;20038;-50
2023/03/22 09:16:36;;;;;;;12.20;10.80;;;13.40;99.90;;;;;;4999310;28;20129;-50
2023/03/22 09:19:22;;;;;;;13.00;10.05;;;13.40;99.90;;;;;;5004218;28;20014;-51
2023/03/22 09:22:08;;;;;;;11.90;10.25;;;13.30;99.90;;;;;;4996591;28;20022;-51
2023/03/22 09:24:54;;;;;;;12.48;10.75;;;13.30;99.90;;;;;;4990795;28;20495;-53
2023/03/22 09:27:40;;;;;;;11.80;9.75;;;13.30;99.90;;;;;;5000123;28;20543;-51
2023/03/22 09:30:26;;;;;;;12.73;9.90;;;13.50;99.90;;;;;;5012508;28;20419;-50
2023/03/22 09:33:12;;;;;;;10.98;9.45;;;13.50;99.90;;;;;;5007319;28;20291;-54
2023/03/22 09:35:58;;;;;;;13.15;9.45;;;13.40;99.90;;;;;;5014588;28;20045;-55
2023/03/22 09:38:45;;;;;;;12.27;10.38;;;13.40;99.90;;;;;;5003802;28;20022;-56
2023/03/22 09:41:40;;;;;;;14.13;9.75;;;13.40;99.90;;;;;;4995194;28;20034;-61
2023/03/22 09:44:33;;;;;;;11.30;9.73;;;13.50;99.90;;;;;;4993247;28;20030;-60
2023/03/22 09:47:27;;;;;;;12.90;10.05;;;13.50;99.90;;;;;;4996920;28;20041;-56
2023/03/22 09:50:23;;;;;;;12.90;9.40;;;13.60;99.90;;;;;;5024820;28;20119;-61
2023/03/22 09:53:13;;;;;;;12.30;9.25;;;13.60;99.90;;;;;;4995995;28;20121;-56
2023/03/22 09:56:17;;;;;;;11.35;10.05;;;13.60;99.90;;;;;;5012957;28;20041;-59
2023/03/22 09:59:15;;;;;;;10.82;9.07;;;13.80;99.90;;;;;;5014942;28;20477;-53
2023/03/22 10:02:10;;;;;;;12.32;8.95;;;13.90;99.90;;;;;;5020204;28;20030;-55
2023/03/22 10:05:32;;;;;;;9.27;7.10;;;14.20;99.90;;;;;;4998752;28;20109;-53
2023/03/22 10:08:43;;;;;;;10.23;6.95;;;14.40;99.90;;;;;;5012016;28;20509;-54
2023/03/22 10:11:52;;;;;;;11.00;7.45;;;14.40;99.90;;;;;;4999703;28;20496;-58
2023/03/22 10:14:40;;;;;;;8.10;7.00;;;14.50;99.90;;;;;;5012785;28;20406;-57
2023/03/22 10:17:28;;;;;;;9.45;6.25;;;14.60;99.90;;;;;;4999074;28;20026;-52
2023/03/22 10:20:28;;;;;;;11.30;5.82;;;14.80;99.90;;;;;;5012962;28;20022;-51
2023/03/22 10:23:24;;;;;;;7.97;5.88;;;14.70;99.70;;;;;;5012544;28;20752;-58
2023/03/22 10:26:22;;;;;;;6.97;5.45;;;14.70;99.70;;;;;;5014143;28;20081;-54
2023/03/22 10:29:27;;;;;;;9.15;6.53;;;14.60;99.40;;;;;;5014845;28;20057;-58
2023/03/22 10:32:16;;;;;;;8.38;5.35;;;14.60;99.60;;;;;;5015379;28;20033;-56
2023/03/22 10:35:02;;;;;;;9.35;5.70;;;14.60;99.60;;;;;;5014955;28;20045;-54
2023/03/22 10:37:50;;;;;;;6.10;5.18;;;14.70;99.10;;;;;;5000322;28;20523;-54
2023/03/22 10:40:39;;;;;;;7.38;5.40;;;14.80;99.00;;;;;;5014018;28;20033;-50
2023/03/22 10:43:35;;;;;;;6.13;4.97;;;14.80;99.10;;;;;;5013619;28;20018;-57
2023/03/22 10:46:25;;;;;;;7.13;4.93;;;14.90;98.40;;;;;;5013553;28;20026;-51
2023/03/22 10:49:22;;;;;;;5.60;4.70;;;15.00;98.60;;;;;;5014892;28;20025;-55
2023/03/22 10:52:25;;;;;;;7.65;5.20;;;15.10;98.20;;;;;;5014452;28;20491;-57
2023/03/22 10:55:13;;;;;;;7.10;5.00;;;15.00;98.40;;;;;;5014817;28;20467;-57
2023/03/22 10:58:13;;;;;;;6.30;4.28;;;14.90;98.20;;;;;;5000737;28;20033;-52
2023/03/22 11:01:08;;;;;;;6.35;4.00;;;15.00;98.00;;;;;;5014835;28;20034;-56
2023/03/22 11:03:56;;;;;;;;;;;15.00;98.00;;;;;;5014903;28;20022;-54
2023/03/22 11:06:52;;;;;;;8.10;4.10;;;15.00;97.80;;;;;;4998755;28;19911;-52
2023/03/22 11:09:38;;;;;;;8.98;4.80;;;15.00;97.90;;;;;;5013973;28;20030;-52
2023/03/22 11:12:24;;;;;;;6.35;4.28;;;15.00;97.80;;;;;;5013203;28;20514;-58
2023/03/22 11:15:29;;;;;;;4.57;3.45;;;15.10;97.60;;;;;;5012946;28;20022;-55
2023/03/22 11:18:16;;;;;;;5.32;3.75;;;15.30;96.90;;;;;;5013493;28;20541;-54
2023/03/22 11:21:10;;;;;;;6.75;3.47;;;15.50;96.70;;;;;;5013817;28;20022;-61
2023/03/22 11:24:05;;;;;;;6.45;3.75;;;15.60;96.00;;;;;;5011977;28;20501;-58
2023/03/22 11:27:05;;;;;;;5.43;3.33;;;15.50;96.10;;;;;;5012806;28;20030;-55
2023/03/22 11:29:56;;;;;;;5.22;3.28;;;15.50;95.80;;;;;;4998108;28;20216;-59
2023/03/22 11:32:42;;;;;;;5.78;3.58;;;15.60;96.00;;;;;;5005707;28;20045;-55
2023/03/22 11:35:29;;;;;;;8.93;3.78;;;15.80;95.90;;;;;;5009972;28;20034;-59
2023/03/22 11:38:35;;;;;;;6.35;3.88;;;15.90;97.10;;;;;;4982878;28;20029;-59
2023/03/22 11:41:23;;;;;;;;;;;16.20;95.10;;;;;;5012909;28;20030;-50
2023/03/22 11:44:16;;;;;;;6.40;3.75;;;16.20;95.00;;;;;;4995516;28;19916;-53
2023/03/22 11:47:03;;;;;;;7.47;3.50;;;16.10;95.50;;;;;;5003299;28;20038;-59
2023/03/22 11:49:50;;;;;;;5.45;3.30;;;16.00;95.10;;;;;;5006615;28;20040;-59
2023/03/22 11:52:36;;;;;;;6.70;3.75;;;16.10;95.60;;;;;;5012336;28;20040;-54
2023/03/22 11:55:23;;;;;;;6.18;3.45;;;16.20;94.90;;;;;;5011640;28;20026;-58
2023/03/22 11:58:51;;;;;;;6.63;3.40;;;16.20;94.50;;;;;;5001700;28;20037;-56
2023/03/22 12:01:43;;;;;;;5.93;3.20;;;16.30;94.80;;;;;;5012565;28;20368;-53
2023/03/22 12:04:36;;;;;;;6.82;3.38;;;16.10;94.00;;;;;;5011835;28;20045;-54
2023/03/22 12:07:24;;;;;;;7.28;3.55;;;16.20;93.80;;;;;;5012313;28;20026;-56
2023/03/22 12:10:36;;;;;;;5.45;3.47;;;16.20;93.60;;;;;;5011814;28;20030;-59
2023/03/22 12:13:46;;;;;;;8.05;4.20;;;16.10;94.00;;;;;;4992138;28;20566;-51
2023/03/22 12:17:01;;;;;;;5.53;3.47;;;16.00;94.10;;;;;;4997093;28;20034;-56
2023/03/22 12:20:11;;;;;;;5.03;3.65;;;16.10;94.20;;;;;;4991901;28;20046;-51
2023/03/22 12:22:57;;;;;;;6.63;4.30;;;16.10;94.20;;;;;;4992018;28;20062;-55
2023/03/22 12:25:56;;;;;;;7.38;4.32;;;16.20;94.30;;;;;;4996948;28;20030;-56
2023/03/22 12:28:55;;;;;;;6.03;3.70;;;16.30;94.70;;;;;;5011603;28;20034;-54
2023/03/22 12:32:03;;;;;;;7.07;4.18;;;16.50;93.80;;;;;;4998534;28;20025;-51
2023/03/22 12:34:51;;;;;;;5.30;3.60;;;16.30;94.10;;;;;;5012044;28;20100;-53
2023/03/22 12:37:41;;;;;;;5.05;3.60;;;16.30;94.00;;;;;;5011696;28;20034;-58
2023/03/22 12:40:38;;;;;;;8.38;4.50;;;16.30;93.60;;;;;;4996323;28;20029;-56
2023/03/22 12:43:48;;;;;;;8.20;4.00;;;16.20;93.80;;;;;;5010815;28;20065;-55
2023/03/22 12:46:48;;;;;;;6.82;4.40;;;16.10;93.60;;;;;;5011237;28;20029;-58
2023/03/22 12:49:40;;;;;;;7.32;4.07;;;16.20;93.60;;;;;;5012117;28;20521;-61
2023/03/22 12:52:53;;;;;;;6.95;4.57;;;16.30;93.40;;;;;;4993490;28;20054;-57
2023/03/22 12:55:40;;;;;;;5.70;4.40;;;16.30;93.50;;;;;;4993921;28;20035;-55
2023/03/22 12:58:27;;;;;;;6.32;4.53;;;16.40;93.70;;;;;;4991552;28;20033;-55
2023/03/22 13:01:35;;;;;;;5.75;4.30;;;16.50;94.00;;;;;;4983963;28;20038;-55
2023/03/22 13:04:24;;;;;;;5.47;3.90;;;16.40;93.80;;;;;;4991709;28;20403;-54
2023/03/22 13:07:57;;;;;;;7.53;4.43;;;16.40;94.10;;;;;;5004588;28;20026;-54
2023/03/22 13:11:03;;;;;;;6.57;4.22;;;16.40;94.10;;;;;;5001669;28;20042;-56
2023/03/22 13:13:49;;;;;;;5.68;4.55;;;16.60;93.90;;;;;;4997399;28;20160;-57
2023/03/22 13:16:50;;;;;;;8.68;4.80;;;16.50;94.10;;;;;;4997149;28;20037;-54
2023/03/22 13:19:36;;;;;;;6.95;4.38;;;16.50;93.90;;;;;;5007877;28;20065;-58
2023/03/22 13:22:49;;;;;;;9.38;4.53;;;16.30;94.20;;;;;;5006103;28;20022;-54
2023/03/22 13:25:38;;;;;;;7.50;4.68;;;16.30;93.90;;;;;;4996580;28;20088;-59
2023/03/22 13:28:26;;;;;;;8.55;3.90;;;16.30;93.70;;;;;;4996179;28;20026;-57
2023/03/22 13:31:36;;;;;;;7.13;3.97;;;16.20;93.70;;;;;;4993360;28;20105;-57
2023/03/22 13:34:45;;;;;;;5.90;4.35;;;16.10;93.90;;;;;;4998706;28;20026;-57
2023/03/22 13:37:35;;;;;;;8.20;4.18;;;16.00;93.80;;;;;;5009914;28;20085;-56
2023/03/22 13:40:38;;;;;;;4.97;3.80;;;16.00;94.10;;;;;;5009791;28;20041;-55
2023/03/22 13:43:42;;;;;;;7.28;4.93;;;16.00;94.00;;;;;;4995544;28;20498;-56
2023/03/22 13:46:43;;;;;;;6.30;3.80;;;16.00;93.70;;;;;;4992795;28;20113;-49
2023/03/22 13:49:46;;;;;;;10.82;5.43;;;16.10;93.80;;;;;;5009493;28;20037;-56
2023/03/22 13:52:42;;;;;;;7.18;4.88;;;16.30;93.80;;;;;;5009345;28;20101;-55
2023/03/22 13:55:50;;;;;;;4.47;3.60;;;16.30;93.20;;;;;;4995074;28;20035;-55
2023/03/22 13:58:45;;;;;;;7.45;3.88;;;16.10;92.70;;;;;;5008567;28;20018;-58
2023/03/22 14:01:51;;;;;;;8.38;3.85;;;15.90;92.60;;;;;;5011156;28;20026;-59
2023/03/22 14:05:07;;;;;;;5.07;3.70;;;16.10;93.00;;;;;;4998988;28;20026;-55
2023/03/22 14:07:56;;;;;;;4.75;3.60;;;16.10;93.00;;;;;;5009445;28;20074;-55
2023/03/22 14:10:47;;;;;;;5.75;4.10;;;16.30;93.20;;;;;;5011413;28;20030;-56
2023/03/22 14:13:45;;;;;;;7.90;4.65;;;16.30;93.10;;;;;;5011711;28;20045;-55
2023/03/22 14:16:45;;;;;;;7.68;4.95;;;16.30;93.00;;;;;;5010266;28;20110;-55
2023/03/22 14:19:33;;;;;;;6.20;4.13;;;16.30;93.10;;;;;;5014506;28;20045;-56
2023/03/22 14:22:32;;;;;;;8.75;4.00;;;16.20;92.90;;;;;;5005801;28;20116;-56
2023/03/22 14:25:26;;;;;;;5.00;3.33;;;16.30;93.00;;;;;;4995162;28;20473;-54
2023/03/22 14:28:20;;;;;;;5.10;3.30;;;16.60;93.00;;;;;;5000107;28;20033;-54
2023/03/22 14:31:17;;;;;;;5.33;3.47;;;16.60;92.80;;;;;;5011980;28;20026;-52
2023/03/22 14:34:07;;;;;;;6.57;4.00;;;16.60;92.70;;;;;;5014320;28;20053;-56
2023/03/22 14:36:59;;;;;;;5.60;3.53;;;16.70;92.30;;;;;;5012457;28;20449;-52
2023/03/22 14:39:49;;;;;;;4.72;3.22;;;16.90;91.80;;;;;;5010824;28;20022;-56
2023/03/22 14:42:35;;;;;;;5.07;3.22;;;17.00;92.10;;;;;;4995541;28;20030;-55
2023/03/22 14:45:22;;;;;;;5.68;3.70;;;16.90;92.00;;;;;;5002848;28;20052;-57